createdAt,value
2023-04-08T00:00:47.393Z,101584.69
2023-04-08T00:03:18.050Z,101604.97
2023-04-08T00:05:49.109Z,101600.50
2023-04-08T00:08:19.756Z,101601.91
2023-04-08T00:10:53.038Z,101607.81
2023-04-08T00:13:23.860Z,101613.88
2023-04-08T00:15:54.436Z,101578.59
2023-04-08T00:18:25.306Z,101608.38
2023-04-08T00:20:57.392Z,101608.19
2023-04-08T00:23:28.013Z,101611.38
2023-04-08T00:26:01.331Z,101614.28
2023-04-08T00:28:32.372Z,101611.28
2023-04-08T00:31:03.042Z,101611.06
2023-04-08T00:33:34.646Z,101609.34
2023-04-08T00:36:05.342Z,101607.09
2023-04-08T00:38:36.278Z,101613.25
2023-04-08T00:41:09.828Z,101621.66
2023-04-08T00:43:40.473Z,101606.06
2023-04-08T00:46:12.022Z,101620.75
2023-04-08T00:48:43.080Z,101622.56
2023-04-08T00:51:13.905Z,101620.06
2023-04-08T00:53:44.530Z,101614.34
2023-04-08T00:56:17.852Z,101611.16
2023-04-08T00:58:48.703Z,101613.97
2023-04-08T01:01:29.144Z,101615.38
2023-04-08T01:04:05.105Z,101610.38
2023-04-08T01:06:43.604Z,101609.34
2023-04-08T01:09:16.803Z,101604.75
2023-04-08T01:11:53.486Z,101601.97
2023-04-08T01:14:29.530Z,101601.38
2023-04-08T01:17:03.536Z,101608.66
2023-04-08T01:19:37.463Z,101612.69
2023-04-08T01:22:15.727Z,101614.97
2023-04-08T01:24:48.620Z,101613.88
2023-04-08T01:27:22.731Z,101610.50
2023-04-08T01:29:53.979Z,101614.22
2023-04-08T01:32:24.857Z,101605.41
2023-04-08T01:34:56.554Z,101612.72
2023-04-08T01:37:32.291Z,101616.31
2023-04-08T01:40:05.568Z,101608.44
2023-04-08T01:42:40.072Z,101613.81
2023-04-08T01:45:13.264Z,101614.84
2023-04-08T01:47:45.086Z,101610.53
2023-04-08T01:50:16.796Z,101610.94
2023-04-08T01:52:49.259Z,101586.59
2023-04-08T01:55:20.512Z,101601.66
2023-04-08T01:57:56.110Z,101595.88
2023-04-08T02:00:30.647Z,101591.06
2023-04-08T02:03:02.769Z,101575.38
2023-04-08T02:05:33.686Z,101585.56
2023-04-08T02:08:04.431Z,101577.94
2023-04-08T02:10:35.230Z,101585.25
2023-04-08T02:13:11.265Z,101581.66
2023-04-08T02:15:49.381Z,101603.44
2023-04-08T02:18:25.436Z,101606.53
2023-04-08T02:21:05.576Z,101600.56
2023-04-08T02:23:40.607Z,101601.91
2023-04-08T02:26:16.615Z,101596.66
2023-04-08T02:28:52.631Z,101592.06
2023-04-08T02:31:27.589Z,101606.56
2023-04-08T02:33:59.654Z,101602.41
2023-04-08T02:36:36.114Z,101607.63
2023-04-08T02:39:07.831Z,101587.13
2023-04-08T02:41:38.581Z,101601.72
2023-04-08T02:44:12.707Z,101604.38
2023-04-08T02:46:45.535Z,101606.06
2023-04-08T02:49:15.970Z,101613.44
2023-04-08T02:51:46.566Z,101616.78
2023-04-08T02:54:17.260Z,101612.38
2023-04-08T02:56:47.884Z,101611.91
2023-04-08T02:59:21.046Z,101591.38
2023-04-08T03:01:51.801Z,101619.34
2023-04-08T03:04:22.477Z,101617.25
2023-04-08T03:06:53.209Z,101621.53
2023-04-08T03:09:24.332Z,101626.22
2023-04-08T03:11:55.164Z,101621.53
2023-04-08T03:14:28.457Z,101624.28
2023-04-08T03:16:59.080Z,101627.81
2023-04-08T03:19:30.297Z,101625.25
2023-04-08T03:22:01.287Z,101624.97
2023-04-08T03:24:32.058Z,101624.22
2023-04-08T03:27:02.685Z,101626.91
2023-04-08T03:29:35.982Z,101632.28
2023-04-08T03:32:07.463Z,101627.22
2023-04-08T03:34:38.436Z,101644.13
2023-04-08T03:37:09.618Z,101629.91
2023-04-08T03:39:40.206Z,101633.88
2023-04-08T03:42:11.763Z,101621.63
2023-04-08T03:44:45.130Z,101641.50
2023-04-08T03:47:15.938Z,101620.09
2023-04-08T03:49:46.633Z,101620.53
2023-04-08T03:52:17.373Z,101636.38
2023-04-08T03:54:47.959Z,101644.59
2023-04-08T03:57:18.967Z,101644.59
2023-04-08T03:59:53.792Z,101647.28
2023-04-08T04:02:25.030Z,101645.50
2023-04-08T04:04:56.601Z,101639.53
2023-04-08T04:07:27.616Z,101642.66
2023-04-08T04:09:58.370Z,101644.81
2023-04-08T04:12:29.446Z,101635.34
2023-04-08T04:15:02.686Z,101636.50
2023-04-08T04:17:33.363Z,101636.31
2023-04-08T04:20:06.581Z,101647.03
2023-04-08T04:22:37.592Z,101648.53
2023-04-08T04:25:09.683Z,101648.38
2023-04-08T04:27:40.436Z,101651.41
2023-04-08T04:30:15.850Z,101653.25
2023-04-08T04:32:46.922Z,101650.13
2023-04-08T04:35:17.603Z,101661.59
2023-04-08T04:37:50.364Z,101661.00
2023-04-08T04:40:31.960Z,101664.94
2023-04-08T04:43:24.885Z,101683.19
2023-04-08T04:46:23.871Z,101685.94
2023-04-08T04:49:07.766Z,101684.88
2023-04-08T04:51:48.380Z,101678.53
2023-04-08T04:54:40.614Z,101676.47
2023-04-08T04:57:19.313Z,101683.16
2023-04-08T05:00:14.918Z,101686.97
2023-04-08T05:02:53.879Z,101686.78
2023-04-08T05:05:30.464Z,101677.56
2023-04-08T05:08:34.909Z,101692.84
2023-04-08T05:11:24.257Z,101694.88
2023-04-08T05:14:10.248Z,101697.25
2023-04-08T05:16:49.217Z,101700.19
2023-04-08T05:19:25.860Z,101707.88
2023-04-08T05:22:07.614Z,101703.00
2023-04-08T05:24:41.719Z,101713.72
2023-04-08T05:27:25.201Z,101707.50
2023-04-08T05:30:09.681Z,101710.97
2023-04-08T05:32:40.383Z,101714.31
2023-04-08T05:35:13.799Z,101710.59
2023-04-08T05:37:44.360Z,101712.81
2023-04-08T05:40:15.323Z,101707.81
2023-04-08T05:42:46.547Z,101709.88
2023-04-08T05:45:17.602Z,101710.72
2023-04-08T05:47:48.240Z,101706.72
2023-04-08T05:50:21.696Z,101702.50
2023-04-08T05:52:52.257Z,101719.81
2023-04-08T05:55:22.954Z,101722.00
2023-04-08T05:57:53.502Z,101723.41
2023-04-08T06:00:24.555Z,101725.19
2023-04-08T06:02:55.916Z,101731.34
2023-04-08T06:05:32.316Z,101731.06
2023-04-08T06:08:03.036Z,101727.44
2023-04-08T06:10:33.931Z,101734.56
2023-04-08T06:13:05.056Z,101739.69
2023-04-08T06:15:35.710Z,101747.69
2023-04-08T06:18:06.467Z,101742.69
2023-04-08T06:20:39.770Z,101745.91
2023-04-08T06:23:10.329Z,101741.41
2023-04-08T06:25:40.855Z,101752.56
2023-04-08T06:28:11.500Z,101721.63
2023-04-08T06:30:42.213Z,101756.09
2023-04-08T06:33:13.056Z,101753.41
2023-04-08T06:35:46.301Z,101759.31
2023-04-08T06:38:17.057Z,101765.19
2023-04-08T06:40:47.941Z,101760.59
2023-04-08T06:43:18.607Z,101758.53
2023-04-08T06:45:49.439Z,101753.53
2023-04-08T06:48:19.996Z,101766.53
2023-04-08T06:50:53.298Z,101769.88
2023-04-08T06:53:25.186Z,101774.97
2023-04-08T06:55:55.997Z,101775.38
2023-04-08T06:58:27.501Z,101767.81
2023-04-08T07:00:58.611Z,101778.13
2023-04-08T07:03:29.330Z,101760.50
2023-04-08T07:06:02.908Z,101782.47
2023-04-08T07:08:33.559Z,101783.00
2023-04-08T07:11:04.275Z,101781.72
2023-04-08T07:13:34.921Z,101791.28
2023-04-08T07:16:06.318Z,101770.13
2023-04-08T07:18:37.067Z,101778.97
2023-04-08T07:21:10.841Z,101785.09
2023-04-08T07:23:41.446Z,101787.09
2023-04-08T07:26:12.194Z,101794.78
2023-04-08T07:28:42.968Z,101784.66
2023-04-08T07:31:14.943Z,101795.13
2023-04-08T07:33:45.936Z,101796.34
2023-04-08T07:36:19.147Z,101791.06
2023-04-08T07:38:49.991Z,101793.66
2023-04-08T07:41:21.383Z,101791.59
2023-04-08T07:43:51.996Z,101794.88
2023-04-08T07:46:23.103Z,101798.31
2023-04-08T07:48:53.801Z,101789.63
2023-04-08T07:51:27.953Z,101792.59
2023-04-08T07:53:58.782Z,101796.69
2023-04-08T07:56:29.483Z,101781.75
2023-04-08T07:59:00.639Z,101810.63
2023-04-08T08:01:31.564Z,101809.88
2023-04-08T08:04:02.328Z,101812.66
2023-04-08T08:06:35.963Z,101807.94
2023-04-08T08:09:07.076Z,101803.75
2023-04-08T08:11:37.701Z,101807.72
2023-04-08T08:14:08.520Z,101811.09
2023-04-08T08:16:39.681Z,101828.41
2023-04-08T08:19:10.515Z,101820.63
2023-04-08T08:21:44.017Z,101825.00
2023-04-08T08:24:15.026Z,101830.59
2023-04-08T08:26:47.546Z,101837.59
2023-04-08T08:29:18.102Z,101826.38
2023-04-08T08:31:48.795Z,101840.03
2023-04-08T08:34:19.446Z,101812.25
2023-04-08T08:36:53.304Z,101829.41
2023-04-08T08:39:23.880Z,101843.22
2023-04-08T08:41:54.405Z,101834.75
2023-04-08T08:44:25.141Z,101845.03
2023-04-08T08:46:56.251Z,101839.13
2023-04-08T08:49:26.980Z,101841.69
2023-04-08T08:52:02.070Z,101841.72
2023-04-08T08:54:32.771Z,101841.47
2023-04-08T08:57:03.376Z,101836.06
2023-04-08T08:59:35.076Z,101844.03
2023-04-08T09:02:05.719Z,101853.94
2023-04-08T09:04:36.876Z,101853.69
2023-04-08T09:07:16.661Z,101863.53
2023-04-08T09:09:52.261Z,101867.63
2023-04-08T09:12:23.335Z,101848.50
2023-04-08T09:14:54.934Z,101856.25
2023-04-08T09:17:36.277Z,101844.00
2023-04-08T09:20:12.741Z,101867.97
2023-04-08T09:23:03.299Z,101872.63
2023-04-08T09:25:35.947Z,101868.78
2023-04-08T09:28:06.648Z,101873.28
2023-04-08T09:30:37.333Z,101880.84
2023-04-08T09:33:08.820Z,101871.16
2023-04-08T09:35:39.720Z,101874.38
2023-04-08T09:38:12.971Z,101879.38
2023-04-08T09:40:46.413Z,101880.84
2023-04-08T09:43:22.922Z,101888.03
2023-04-08T09:45:54.350Z,101877.28
2023-04-08T09:48:30.852Z,101883.00
2023-04-08T09:51:03.835Z,101880.19
2023-04-08T09:53:41.253Z,101886.03
2023-04-08T09:56:15.158Z,101879.28
2023-04-08T09:58:53.740Z,101882.84
2023-04-08T10:01:31.602Z,101889.88
2023-04-08T10:04:06.554Z,101888.03
2023-04-08T10:06:39.863Z,101886.69
2023-04-08T10:09:13.671Z,101896.88
2023-04-08T10:11:44.411Z,101887.78
2023-04-08T10:14:15.235Z,101893.56
2023-04-08T10:16:45.800Z,101894.16
2023-04-08T10:19:44.785Z,101890.91
2023-04-08T10:22:56.701Z,101889.28
2023-04-08T10:25:37.172Z,101892.13
2023-04-08T10:28:30.068Z,101890.84
2023-04-08T10:31:00.825Z,101896.63
2023-04-08T10:33:40.009Z,101892.44
2023-04-08T10:36:18.938Z,101906.56
2023-04-08T10:38:49.828Z,101894.19
2023-04-08T10:41:27.457Z,101891.44
2023-04-08T10:43:58.316Z,101891.13
2023-04-08T10:46:31.084Z,101894.97
2023-04-08T10:49:04.727Z,101867.66
2023-04-08T10:51:39.020Z,101896.53
2023-04-08T10:54:11.130Z,101882.31
2023-04-08T10:56:50.902Z,101893.09
2023-04-08T10:59:32.252Z,101883.22
2023-04-08T11:02:03.613Z,101902.97
2023-04-08T11:04:34.653Z,101899.72
2023-04-08T11:07:08.804Z,101894.53
2023-04-08T11:09:42.604Z,101894.19
2023-04-08T11:12:19.290Z,101905.75
2023-04-08T11:14:51.784Z,101908.06
2023-04-08T11:17:22.969Z,101905.50
2023-04-08T11:19:53.811Z,101908.22
2023-04-08T11:22:24.674Z,101918.81
2023-04-08T11:24:56.429Z,101904.84
2023-04-08T11:27:30.329Z,101906.06
2023-04-08T11:30:01.737Z,101894.50
2023-04-08T11:32:32.846Z,101904.09
2023-04-08T11:35:04.225Z,101901.22
2023-04-08T11:37:41.156Z,101894.19
2023-04-08T11:40:13.775Z,101906.09
2023-04-08T11:42:47.269Z,101906.16
2023-04-08T11:45:19.886Z,101904.78
2023-04-08T11:47:51.502Z,101911.06
2023-04-08T11:50:30.181Z,101914.81
2023-04-08T11:53:01.210Z,101917.63
2023-04-08T11:55:33.255Z,101917.41
2023-04-08T11:58:08.768Z,101923.50
2023-04-08T12:00:39.746Z,101915.44
2023-04-08T12:03:11.489Z,101930.16
2023-04-08T12:05:42.913Z,101933.75
2023-04-08T12:08:13.845Z,101904.75
2023-04-08T12:10:44.785Z,101923.78
2023-04-08T12:13:18.097Z,101920.97
2023-04-08T12:15:48.865Z,101927.75
2023-04-08T12:18:19.486Z,101923.28
2023-04-08T12:20:50.204Z,101926.34
2023-04-08T12:23:21.344Z,101925.97
2023-04-08T12:25:52.158Z,101930.03
2023-04-08T12:28:25.559Z,101926.97
2023-04-08T12:30:56.424Z,101929.44
2023-04-08T12:33:27.032Z,101931.94
2023-04-08T12:35:58.541Z,101926.38
2023-04-08T12:38:29.999Z,101922.53
2023-04-08T12:41:00.674Z,101921.78
2023-04-08T12:43:34.762Z,101931.81
2023-04-08T12:46:05.308Z,101933.91
2023-04-08T12:48:36.969Z,101928.19
2023-04-08T12:51:09.987Z,101921.09
2023-04-08T12:53:40.580Z,101928.53
2023-04-08T12:56:11.575Z,101929.09
2023-04-08T12:58:44.748Z,101929.31
2023-04-08T13:01:15.658Z,101927.22
2023-04-08T13:03:48.031Z,101926.88
2023-04-08T13:06:18.831Z,101903.69
2023-04-08T13:08:50.306Z,101915.59
2023-04-08T13:11:21.512Z,101917.56
2023-04-08T13:13:54.897Z,101917.41
2023-04-08T13:16:25.947Z,101920.84
2023-04-08T13:18:56.969Z,101923.53
2023-04-08T13:21:27.709Z,101920.28
2023-04-08T13:23:58.439Z,101921.63
2023-04-08T13:26:29.472Z,101890.41
2023-04-08T13:29:02.844Z,101914.78
2023-04-08T13:31:33.524Z,101904.59
2023-04-08T13:34:04.360Z,101893.81
2023-04-08T13:36:34.965Z,101907.13
2023-04-08T13:39:05.468Z,101915.38
2023-04-08T13:41:36.219Z,101912.84
2023-04-08T13:44:09.825Z,101912.53
2023-04-08T13:46:40.656Z,101908.19
2023-04-08T13:49:11.811Z,101912.69
2023-04-08T13:51:42.334Z,101907.84
2023-04-08T13:54:12.860Z,101914.47
2023-04-08T13:56:43.849Z,101912.50
2023-04-08T13:59:17.889Z,101907.63
2023-04-08T14:01:48.514Z,101909.44
2023-04-08T14:04:19.682Z,101908.19
2023-04-08T14:06:51.644Z,101910.69
2023-04-08T14:09:23.637Z,101901.00
2023-04-08T14:11:54.389Z,101901.38
2023-04-08T14:14:27.912Z,101907.13
2023-04-08T14:16:58.941Z,101916.09
2023-04-08T14:19:29.643Z,101914.63
2023-04-08T14:22:00.449Z,101922.91
2023-04-08T14:24:31.094Z,101897.25
2023-04-08T14:27:02.401Z,101912.88
2023-04-08T14:29:35.977Z,101918.44
2023-04-08T14:32:06.866Z,101883.75
2023-04-08T14:34:37.596Z,101900.63
2023-04-08T14:37:08.325Z,101920.56
2023-04-08T14:39:39.022Z,101918.09
2023-04-08T14:42:09.734Z,101914.09
2023-04-08T14:44:42.912Z,101917.53
2023-04-08T14:47:13.622Z,101913.97
2023-04-08T14:49:44.385Z,101930.28
2023-04-08T14:52:14.976Z,101920.22
2023-04-08T14:54:47.194Z,101928.47
2023-04-08T14:57:18.249Z,101921.28
2023-04-08T14:59:51.509Z,101930.03
2023-04-08T15:02:22.513Z,101929.72
2023-04-08T15:04:53.149Z,101909.63
2023-04-08T15:07:24.056Z,101928.66
2023-04-08T15:09:54.585Z,101932.78
2023-04-08T15:12:25.444Z,101918.22
2023-04-08T15:14:58.879Z,101929.53
2023-04-08T15:17:29.580Z,101932.78
2023-04-08T15:20:00.473Z,101931.16
2023-04-08T15:22:31.474Z,101923.59
2023-04-08T15:25:05.147Z,101923.41
2023-04-08T15:27:39.285Z,101930.94
2023-04-08T15:30:13.511Z,101928.59
2023-04-08T15:32:44.469Z,101910.44
2023-04-08T15:35:15.716Z,101905.59
2023-04-08T15:37:46.801Z,101941.88
2023-04-08T15:40:18.051Z,101939.75
2023-04-08T15:43:07.813Z,101939.00
2023-04-08T15:46:16.797Z,101925.00
2023-04-08T15:49:32.689Z,101943.50
2023-04-08T15:52:12.684Z,101950.66
2023-04-08T15:54:58.260Z,101954.81
2023-04-08T15:58:03.303Z,101949.03
2023-04-08T16:01:13.568Z,101946.13
2023-04-08T16:04:30.014Z,101949.91
2023-04-08T16:07:31.349Z,101948.09
2023-04-08T16:10:20.100Z,101951.16
2023-04-08T16:13:06.674Z,101951.34
2023-04-08T16:16:02.689Z,101930.16
2023-04-08T16:19:21.033Z,101949.56
2023-04-08T16:22:32.953Z,101960.34
2023-04-08T16:25:21.306Z,101956.34
2023-04-08T16:28:08.723Z,101960.47
2023-04-08T16:31:09.077Z,101937.78
2023-04-08T16:34:11.944Z,101964.75
2023-04-08T16:37:23.557Z,101964.38
2023-04-08T16:40:06.970Z,101971.91
2023-04-08T16:43:02.813Z,101967.63
2023-04-08T16:45:46.554Z,101962.88
2023-04-08T16:48:33.594Z,101980.09
2023-04-08T16:51:26.811Z,101979.25
2023-04-08T16:54:07.457Z,101978.66
2023-04-08T16:56:54.754Z,101977.53
2023-04-08T16:59:49.239Z,101979.50
2023-04-08T17:02:45.020Z,101988.63
2023-04-08T17:05:51.687Z,102000.06
2023-04-08T17:08:37.744Z,102001.88
2023-04-08T17:11:26.236Z,101987.91
2023-04-08T17:14:13.520Z,102000.97
2023-04-08T17:17:01.704Z,101991.34
2023-04-08T17:20:02.939Z,102000.50
2023-04-08T17:22:51.461Z,101994.38
2023-04-08T17:25:30.986Z,101998.91
2023-04-08T17:28:31.485Z,101999.41
2023-04-08T17:31:26.446Z,101995.63
2023-04-08T17:37:54.967Z,101991.97
2023-04-08T17:40:48.863Z,102011.91
2023-04-08T17:43:55.031Z,102003.97
2023-04-08T17:46:41.332Z,102007.03
2023-04-08T17:49:45.952Z,102009.16
2023-04-08T17:52:52.286Z,101980.91
2023-04-08T17:55:28.280Z,102000.69
2023-04-08T17:58:17.100Z,102009.63
2023-04-08T18:01:08.181Z,102010.72
2023-04-08T18:03:39.650Z,102009.63
2023-04-08T18:06:10.864Z,102013.38
2023-04-08T18:08:41.661Z,102014.88
2023-04-08T18:11:12.278Z,102020.25
2023-04-08T18:13:42.936Z,102023.84
2023-04-08T18:16:22.005Z,102023.50
2023-04-08T18:18:52.629Z,102027.56
2023-04-08T18:21:23.517Z,102027.19
2023-04-08T18:23:54.523Z,102040.34
2023-04-08T18:26:25.677Z,102042.16
2023-04-08T18:28:56.339Z,102038.16
2023-04-08T18:31:29.787Z,102035.44
2023-04-08T18:34:00.725Z,102043.31
2023-04-08T18:36:31.868Z,102017.22
2023-04-08T18:39:03.259Z,102050.84
2023-04-08T18:41:33.863Z,102046.13
2023-04-08T18:44:04.493Z,102050.25
2023-04-08T18:46:38.010Z,102057.44
2023-04-08T18:49:08.830Z,102061.59
2023-04-08T18:51:42.207Z,102054.06
2023-04-08T18:54:17.998Z,102053.34
2023-04-08T18:56:49.423Z,102063.06
2023-04-08T18:59:20.033Z,102057.84
2023-04-08T19:01:53.790Z,102058.34
2023-04-08T19:04:24.832Z,102056.56
2023-04-08T19:06:56.648Z,102062.69
2023-04-08T19:09:27.345Z,102052.25
2023-04-08T19:11:58.047Z,102065.88
2023-04-08T19:14:28.744Z,102059.44
2023-04-08T19:17:02.261Z,102067.72
2023-04-08T19:19:33.095Z,102057.25
2023-04-08T19:22:06.009Z,102064.59
2023-04-08T19:24:36.906Z,102064.78
2023-04-08T19:27:07.974Z,102062.47
2023-04-08T19:29:38.773Z,102060.28
2023-04-08T19:32:12.880Z,102054.00
2023-04-08T19:34:43.945Z,102055.47
2023-04-08T19:37:14.960Z,102066.53
2023-04-08T19:39:45.952Z,102055.16
2023-04-08T19:42:17.711Z,102048.56
2023-04-08T19:44:49.567Z,102047.16
2023-04-08T19:47:23.212Z,102054.44
2023-04-08T19:49:54.085Z,102055.25
2023-04-08T19:52:25.095Z,102062.72
2023-04-08T19:54:55.955Z,102052.63
2023-04-08T19:57:26.716Z,102055.63
2023-04-08T19:59:57.773Z,102043.91
2023-04-08T20:02:31.775Z,102054.06
2023-04-08T20:05:02.769Z,102054.91
2023-04-08T20:07:33.568Z,102058.94
2023-04-08T20:10:04.602Z,102055.81
2023-04-08T20:12:35.656Z,102061.88
2023-04-08T20:15:11.320Z,102058.75
2023-04-08T20:17:49.877Z,102066.56
2023-04-08T20:20:20.694Z,102070.78
2023-04-08T20:22:51.455Z,102061.78
2023-04-08T20:25:22.963Z,102069.50
2023-04-08T20:27:53.751Z,102074.13
2023-04-08T20:30:24.913Z,102067.22
2023-04-08T20:32:58.260Z,102058.31
2023-04-08T20:35:29.113Z,102080.53
2023-04-08T20:37:59.887Z,102084.03
2023-04-08T20:40:30.685Z,102075.91
2023-04-08T20:43:01.653Z,102078.34
2023-04-08T20:45:32.416Z,102079.94
2023-04-08T20:48:05.986Z,102071.84
2023-04-08T20:50:36.687Z,102083.94
2023-04-08T20:53:07.586Z,102087.81
2023-04-08T20:55:38.717Z,102082.91
2023-04-08T20:58:09.641Z,102090.94
2023-04-08T21:00:40.675Z,102087.81
2023-04-08T21:03:14.103Z,102085.81
2023-04-08T21:05:47.906Z,102084.22
2023-04-08T21:08:19.265Z,102087.91
2023-04-08T21:10:50.692Z,102087.00
2023-04-08T21:13:22.547Z,102083.41
2023-04-08T21:15:53.563Z,102082.72
2023-04-08T21:18:27.109Z,102080.63
2023-04-08T21:20:58.005Z,102083.13
2023-04-08T21:23:28.812Z,102087.25
2023-04-08T21:26:01.996Z,102089.84
2023-04-08T21:28:33.643Z,102089.84
2023-04-08T21:31:11.253Z,102084.44
2023-04-08T21:33:44.521Z,102090.66
2023-04-08T21:36:15.593Z,102067.72
2023-04-08T21:38:46.250Z,102070.41
2023-04-08T21:41:17.436Z,102075.84
2023-04-08T21:43:48.739Z,102092.06
2023-04-08T21:46:19.568Z,102097.97
2023-04-08T21:48:53.357Z,102099.25
2023-04-08T21:51:24.144Z,102105.38
2023-04-08T21:53:55.081Z,102098.78
2023-04-08T21:56:31.886Z,102115.56
2023-04-08T21:59:10.191Z,102051.59
2023-04-08T22:01:41.569Z,102108.97
2023-04-08T22:04:14.985Z,102105.56
2023-04-08T22:06:45.821Z,102104.66
2023-04-08T22:09:16.713Z,102109.06
2023-04-08T22:11:47.333Z,102107.06
2023-04-08T22:14:18.034Z,102104.16
2023-04-08T22:16:48.869Z,102097.53
2023-04-08T22:19:22.080Z,102105.28
2023-04-08T22:21:53.395Z,102098.06
2023-04-08T22:24:24.139Z,102077.91
2023-04-08T22:26:56.162Z,102097.13
2023-04-08T22:29:27.246Z,102091.91
2023-04-08T22:31:57.750Z,102094.97
2023-04-08T22:34:31.043Z,102090.25
2023-04-08T22:37:01.813Z,102090.06
2023-04-08T22:39:32.807Z,102095.75
2023-04-08T22:42:03.752Z,102097.22
2023-04-08T22:44:34.278Z,102086.63
2023-04-08T22:47:04.824Z,102097.72
2023-04-08T22:49:38.206Z,102097.31
2023-04-08T22:52:08.859Z,102079.25
2023-04-08T22:54:39.652Z,102090.91
2023-04-08T22:57:10.344Z,102081.41
2023-04-08T22:59:41.172Z,102083.69
2023-04-08T23:02:11.865Z,102090.09
2023-04-08T23:04:45.496Z,102093.97
2023-04-08T23:07:16.439Z,102088.38
2023-04-08T23:09:47.704Z,102080.13
2023-04-08T23:12:18.695Z,102088.59
2023-04-08T23:14:49.958Z,102086.59
2023-04-08T23:17:20.900Z,102080.69
2023-04-08T23:19:54.446Z,102086.78
2023-04-08T23:22:25.274Z,102089.28
2023-04-08T23:24:55.890Z,102077.88
2023-04-08T23:27:26.660Z,102088.75
2023-04-08T23:29:57.461Z,102076.50
2023-04-08T23:32:29.328Z,102079.97
2023-04-08T23:35:02.806Z,102068.75
2023-04-08T23:37:33.711Z,102080.25
2023-04-08T23:40:04.662Z,102077.16
2023-04-08T23:42:35.867Z,102086.16
2023-04-08T23:45:07.516Z,102087.25
2023-04-08T23:47:38.276Z,102090.16
2023-04-08T23:50:12.803Z,102095.66
2023-04-08T23:52:43.527Z,102091.63
2023-04-08T23:55:14.151Z,102094.91
2023-04-08T23:57:45.905Z,102102.22
